createdAt,value
2022-08-22T00:00:13.372Z,23.20
2022-08-22T00:02:40.131Z,22.40
2022-08-22T00:02:46.391Z,23.10
2022-08-22T00:02:57.677Z,22.80
2022-08-22T00:05:06.576Z,23.90
2022-08-22T00:07:33.027Z,23.60
2022-08-22T00:09:59.490Z,23.20
2022-08-22T00:12:25.929Z,23.20
2022-08-22T00:14:52.372Z,23.20
2022-08-22T00:17:18.825Z,22.70
2022-08-22T00:19:45.270Z,23.70
2022-08-22T00:22:11.713Z,23.20
2022-08-22T00:24:38.169Z,23.90
2022-08-22T00:27:04.612Z,23.20
2022-08-22T00:29:31.057Z,23.40
2022-08-22T00:31:59.319Z,23.60
2022-08-22T00:36:52.962Z,23.90
2022-08-22T00:39:19.421Z,23.10
2022-08-22T00:41:45.892Z,22.70
2022-08-22T00:44:12.346Z,23.50
2022-08-22T00:46:38.781Z,23.10
2022-08-22T00:49:05.227Z,22.40
2022-08-22T00:51:31.654Z,23.60
2022-08-22T00:53:58.126Z,23.80
2022-08-22T00:56:24.563Z,22.70
2022-08-22T00:58:51.004Z,23.10
2022-08-22T01:01:17.506Z,23.70
2022-08-22T01:03:43.973Z,23.60
2022-08-22T01:06:10.416Z,23.10
2022-08-22T01:08:36.883Z,23.70
2022-08-22T01:11:03.343Z,22.70
2022-08-22T01:13:29.873Z,22.90
2022-08-22T01:15:56.335Z,23.60
2022-08-22T01:18:22.800Z,23.50
2022-08-22T01:20:49.255Z,22.70
2022-08-22T01:23:15.688Z,23.00
2022-08-22T01:25:42.149Z,24.00
2022-08-22T01:28:08.627Z,22.90
2022-08-22T01:30:35.460Z,23.10
2022-08-22T01:33:03.379Z,24.30
2022-08-22T01:35:29.830Z,23.90
2022-08-22T01:37:56.309Z,23.10
2022-08-22T01:40:22.890Z,23.60
2022-08-22T01:42:50.336Z,23.50
2022-08-22T01:45:16.807Z,22.80
2022-08-22T01:47:43.269Z,23.10
2022-08-22T01:50:09.726Z,22.60
2022-08-22T01:52:36.178Z,23.40
2022-08-22T01:55:02.630Z,23.10
2022-08-22T01:57:29.076Z,23.10
2022-08-22T01:59:55.508Z,22.50
2022-08-22T02:02:21.950Z,23.60
2022-08-22T02:04:48.418Z,24.10
2022-08-22T02:07:14.868Z,23.10
2022-08-22T02:09:41.321Z,22.80
2022-08-22T02:12:07.760Z,22.90
2022-08-22T02:14:43.648Z,22.90
2022-08-22T02:17:10.081Z,23.10
2022-08-22T02:19:36.536Z,23.70
2022-08-22T02:22:02.973Z,22.70
2022-08-22T02:24:29.432Z,23.10
2022-08-22T02:26:55.885Z,22.90
2022-08-22T02:29:22.328Z,23.00
2022-08-22T02:31:48.777Z,22.80
2022-08-22T02:34:15.270Z,22.20
2022-08-22T02:39:08.723Z,23.10
2022-08-22T02:41:35.255Z,23.00
2022-08-22T02:44:01.717Z,22.90
2022-08-22T02:46:28.157Z,23.10
2022-08-22T02:48:54.605Z,23.30
2022-08-22T02:51:21.039Z,23.10
2022-08-22T02:53:47.535Z,22.60
2022-08-22T02:56:13.990Z,23.10
2022-08-22T02:58:40.435Z,22.50
2022-08-22T03:01:06.909Z,24.20
2022-08-22T03:03:33.372Z,23.00
2022-08-22T03:06:01.598Z,24.30
2022-08-22T03:08:29.102Z,22.80
2022-08-22T03:10:55.801Z,22.90
2022-08-22T03:13:22.272Z,24.20
2022-08-22T03:15:49.850Z,23.10
2022-08-22T03:18:16.301Z,23.00
2022-08-22T03:20:42.769Z,23.10
2022-08-22T03:23:09.213Z,22.90
2022-08-22T03:25:35.663Z,22.60
2022-08-22T03:28:02.294Z,23.10
2022-08-22T03:30:28.909Z,22.40
2022-08-22T03:32:55.361Z,22.60
2022-08-22T03:35:21.801Z,22.40
2022-08-22T03:37:48.241Z,22.90
2022-08-22T03:40:14.796Z,22.90
2022-08-22T03:42:41.280Z,22.80
2022-08-22T03:45:07.737Z,22.80
2022-08-22T03:47:34.186Z,22.70
2022-08-22T03:50:00.647Z,22.50
2022-08-22T03:52:27.092Z,22.60
2022-08-22T03:54:53.539Z,22.60
2022-08-22T03:57:19.986Z,23.00
2022-08-22T03:59:46.442Z,22.70
2022-08-22T04:02:42.424Z,23.50
2022-08-22T04:05:01.204Z,22.90
2022-08-22T04:07:28.361Z,23.50
2022-08-22T04:09:58.792Z,23.90
2022-08-22T04:12:25.260Z,23.20
2022-08-22T04:17:18.696Z,22.60
2022-08-22T04:19:45.148Z,23.00
2022-08-22T04:22:11.588Z,22.80
2022-08-22T04:27:05.021Z,23.00
2022-08-22T04:29:31.465Z,23.50
2022-08-22T04:31:57.929Z,22.90
2022-08-22T04:34:24.390Z,22.90
2022-08-22T04:36:50.853Z,23.40
2022-08-22T04:39:17.326Z,23.00
2022-08-22T04:41:43.773Z,22.50
2022-08-22T04:44:10.237Z,22.90
2022-08-22T04:46:39.852Z,22.30
2022-08-22T04:49:08.241Z,22.10
2022-08-22T04:51:34.686Z,22.10
2022-08-22T04:54:01.129Z,21.20
2022-08-22T04:56:27.588Z,20.90
2022-08-22T04:58:54.052Z,21.30
2022-08-22T05:01:22.195Z,20.90
2022-08-22T05:03:48.675Z,20.60
2022-08-22T05:06:15.113Z,21.20
2022-08-22T05:08:41.574Z,21.40
2022-08-22T05:11:08.294Z,20.70
2022-08-22T05:13:34.747Z,20.50
2022-08-22T05:16:01.198Z,19.90
2022-08-22T05:18:29.529Z,21.10
2022-08-22T05:20:56.473Z,21.20
2022-08-22T05:23:22.930Z,20.20
2022-08-22T05:25:49.369Z,21.10
2022-08-22T05:28:15.880Z,20.40
2022-08-22T05:30:42.320Z,21.40
2022-08-22T05:33:08.759Z,20.20
2022-08-22T05:35:35.188Z,19.80
2022-08-22T05:38:01.615Z,20.40
2022-08-22T05:40:28.074Z,20.40
2022-08-22T05:42:54.576Z,21.00
2022-08-22T05:45:21.029Z,20.40
2022-08-22T05:50:14.457Z,19.70
2022-08-22T05:52:40.915Z,20.00
2022-08-22T05:55:07.362Z,19.50
2022-08-22T06:00:00.793Z,19.40
2022-08-22T06:02:27.246Z,19.60
2022-08-22T06:04:53.701Z,19.80
2022-08-22T06:07:20.769Z,19.80
2022-08-22T06:09:47.300Z,19.40
2022-08-22T06:12:22.214Z,19.60
2022-08-22T06:14:48.912Z,20.10
2022-08-22T06:17:15.412Z,20.10
2022-08-22T06:19:41.861Z,20.90
2022-08-22T06:22:08.318Z,20.30
2022-08-22T06:24:34.760Z,20.20
2022-08-22T06:27:01.209Z,19.60
2022-08-22T06:29:27.676Z,21.10
2022-08-22T06:31:54.127Z,20.30
2022-08-22T06:34:20.590Z,20.20
2022-08-22T06:36:47.054Z,20.40
2022-08-22T06:39:13.546Z,20.50
2022-08-22T06:41:40.016Z,21.20
2022-08-22T06:44:06.474Z,20.50
2022-08-22T06:46:32.917Z,21.70
2022-08-22T06:49:00.251Z,21.30
2022-08-22T06:51:26.826Z,21.20
2022-08-22T06:53:53.274Z,21.60
2022-08-22T06:56:19.734Z,21.70
2022-08-22T07:01:13.180Z,21.70
2022-08-22T07:03:39.645Z,21.60
2022-08-22T07:06:06.088Z,21.50
2022-08-22T07:08:35.995Z,21.60
2022-08-22T07:11:05.009Z,21.20
2022-08-22T07:13:31.457Z,21.80
2022-08-22T07:15:57.917Z,22.10
2022-08-22T07:18:24.363Z,22.10
2022-08-22T07:23:17.796Z,20.90
2022-08-22T07:25:44.242Z,21.80
2022-08-22T07:28:15.866Z,21.80
2022-08-22T07:30:42.797Z,21.70
2022-08-22T07:35:53.306Z,22.00
2022-08-22T07:38:20.254Z,21.70
2022-08-22T07:43:13.685Z,22.10
2022-08-22T07:45:40.132Z,21.80
2022-08-22T07:48:06.579Z,21.80
2022-08-22T07:50:33.030Z,22.00
2022-08-22T07:52:59.469Z,22.00
2022-08-22T07:55:25.908Z,21.70
2022-08-22T08:00:19.394Z,21.80
2022-08-22T08:02:45.858Z,21.90
2022-08-22T08:05:12.305Z,21.60
2022-08-22T08:07:38.749Z,22.10
2022-08-22T08:10:05.956Z,22.20
2022-08-22T08:12:34.398Z,22.10
2022-08-22T08:15:00.844Z,22.60
2022-08-22T08:17:31.873Z,21.90
2022-08-22T08:19:58.757Z,22.30
2022-08-22T08:24:52.209Z,21.90
2022-08-22T08:27:18.853Z,22.10
2022-08-22T08:29:45.308Z,22.00
2022-08-22T08:32:11.772Z,22.00
2022-08-22T08:34:38.226Z,21.70
2022-08-22T08:37:04.670Z,22.20
2022-08-22T08:39:34.938Z,22.10
2022-08-22T08:42:01.868Z,22.60
2022-08-22T08:44:28.316Z,21.90
2022-08-22T08:46:55.863Z,22.00
2022-08-22T08:49:24.193Z,22.30
2022-08-22T08:51:50.749Z,23.40
2022-08-22T08:54:17.218Z,22.30
2022-08-22T08:56:47.109Z,22.20
2022-08-22T08:59:13.785Z,21.50
2022-08-22T09:01:40.245Z,22.50
2022-08-22T09:04:06.854Z,22.60
2022-08-22T09:06:42.534Z,22.30
2022-08-22T09:09:09.160Z,22.30
2022-08-22T09:11:35.780Z,22.30
2022-08-22T09:16:30.407Z,22.40
2022-08-22T09:21:31.218Z,22.00
2022-08-22T09:23:57.997Z,22.40
2022-08-22T09:26:24.869Z,22.60
2022-08-22T09:28:51.324Z,22.30
2022-08-22T09:31:32.968Z,22.00
2022-08-22T09:34:05.275Z,23.50
2022-08-22T09:36:31.917Z,22.10
2022-08-22T09:38:58.461Z,22.40
2022-08-22T09:41:24.909Z,22.50
2022-08-22T09:43:51.364Z,22.40
2022-08-22T09:48:45.937Z,22.30
2022-08-22T09:51:31.301Z,22.50
2022-08-22T09:53:59.293Z,22.40
2022-08-22T09:56:26.058Z,23.40
2022-08-22T09:58:52.699Z,22.60
2022-08-22T10:01:19.204Z,22.60
2022-08-22T10:03:45.673Z,22.50
2022-08-22T10:06:13.401Z,22.60
2022-08-22T10:08:39.844Z,22.80
2022-08-22T10:11:06.669Z,22.60
2022-08-22T10:13:34.140Z,22.40
2022-08-22T10:16:00.678Z,23.00
2022-08-22T10:18:27.117Z,22.60
2022-08-22T10:20:53.568Z,22.70
2022-08-22T10:23:21.471Z,22.70
2022-08-22T10:25:47.949Z,22.40
2022-08-22T10:28:14.399Z,22.80
2022-08-22T10:30:40.866Z,22.90
2022-08-22T10:33:07.319Z,22.60
2022-08-22T10:35:34.302Z,22.60
2022-08-22T10:40:27.978Z,22.40
2022-08-22T10:42:54.500Z,22.60
2022-08-22T10:45:36.015Z,22.70
2022-08-22T10:48:03.414Z,22.80
2022-08-22T10:50:35.494Z,22.60
2022-08-22T10:53:02.179Z,22.70
2022-08-22T10:55:28.673Z,22.50
2022-08-22T10:57:55.143Z,22.60
2022-08-22T11:00:22.619Z,22.70
2022-08-22T11:02:53.294Z,22.50
2022-08-22T11:05:19.878Z,22.60
2022-08-22T11:07:48.609Z,23.20
2022-08-22T11:10:15.412Z,23.00
2022-08-22T11:15:08.860Z,22.70
2022-08-22T11:17:41.668Z,22.20
2022-08-22T11:20:09.176Z,22.60
2022-08-22T11:22:36.002Z,22.70
2022-08-22T11:25:04.357Z,22.70
2022-08-22T11:27:38.392Z,22.60
2022-08-22T11:32:33.706Z,22.40
2022-08-22T11:35:00.362Z,22.80
2022-08-22T11:37:40.289Z,22.90
2022-08-22T11:40:11.980Z,22.80
2022-08-22T11:42:38.529Z,22.80
2022-08-22T11:45:16.358Z,22.90
2022-08-22T11:50:13.459Z,22.80
2022-08-22T11:52:40.568Z,22.40
2022-08-22T11:55:09.114Z,23.00
2022-08-22T11:57:36.189Z,22.50
2022-08-22T12:00:02.640Z,22.80
2022-08-22T12:02:29.129Z,23.00
2022-08-22T12:04:57.545Z,22.40
2022-08-22T12:09:50.998Z,22.30
2022-08-22T12:12:19.051Z,24.30
2022-08-22T12:17:18.992Z,22.80
2022-08-22T12:20:15.073Z,23.20
2022-08-22T12:22:44.407Z,23.00
2022-08-22T12:25:16.386Z,22.50
2022-08-22T12:27:49.729Z,22.50
2022-08-22T12:30:20.577Z,22.90
2022-08-22T12:32:47.031Z,22.80
2022-08-22T12:35:15.539Z,22.70
2022-08-22T12:37:52.883Z,22.40
2022-08-22T12:40:19.792Z,22.80
2022-08-22T12:42:46.295Z,22.80
2022-08-22T12:45:12.760Z,22.70
2022-08-22T12:47:42.298Z,22.20
2022-08-22T12:50:08.879Z,22.80
2022-08-22T12:52:39.231Z,22.60
2022-08-22T12:55:05.673Z,22.90
2022-08-22T12:57:34.429Z,22.70
2022-08-22T13:00:01.919Z,22.50
2022-08-22T13:02:28.465Z,23.00
2022-08-22T13:04:56.843Z,22.90
2022-08-22T13:07:23.432Z,22.60
2022-08-22T13:09:49.878Z,22.40
2022-08-22T13:12:19.912Z,23.00
2022-08-22T13:14:46.606Z,22.90
2022-08-22T13:17:24.630Z,22.90
2022-08-22T13:19:52.239Z,22.80
2022-08-22T13:22:18.700Z,22.60
2022-08-22T13:24:52.604Z,22.30
2022-08-22T13:27:20.286Z,22.80
2022-08-22T13:29:46.910Z,22.60
2022-08-22T13:34:43.429Z,22.90
2022-08-22T13:37:10.095Z,23.70
2022-08-22T13:39:36.720Z,22.80
2022-08-22T13:42:03.192Z,22.70
2022-08-22T13:44:40.668Z,22.80
2022-08-22T13:47:14.702Z,22.90
2022-08-22T13:49:41.470Z,23.50
2022-08-22T13:52:14.464Z,22.60
2022-08-22T13:54:54.328Z,22.30
2022-08-22T13:57:20.768Z,22.60
2022-08-22T13:59:53.106Z,22.40
2022-08-22T14:02:21.339Z,22.20
2022-08-22T14:04:48.785Z,24.10
2022-08-22T14:07:15.230Z,22.30
2022-08-22T14:09:41.696Z,22.80
2022-08-22T14:12:08.155Z,23.90
2022-08-22T14:14:38.778Z,22.60
2022-08-22T14:19:32.229Z,22.50
2022-08-22T14:22:18.653Z,23.00
2022-08-22T14:24:45.697Z,22.90
2022-08-22T14:27:12.526Z,22.70
2022-08-22T14:29:40.931Z,24.30
2022-08-22T14:32:08.764Z,22.50
2022-08-22T14:37:02.909Z,22.90
2022-08-22T14:39:29.346Z,22.30
2022-08-22T14:41:59.418Z,23.00
2022-08-22T14:44:27.743Z,24.30
2022-08-22T14:46:54.206Z,22.90
2022-08-22T14:49:24.747Z,24.10
2022-08-22T14:51:51.780Z,24.10
2022-08-22T14:56:48.197Z,22.30
2022-08-22T14:59:14.912Z,22.90
2022-08-22T15:01:41.446Z,23.10
2022-08-22T15:04:08.084Z,24.10
2022-08-22T15:06:34.530Z,22.90
2022-08-22T15:09:07.860Z,24.20
2022-08-22T15:11:34.556Z,23.40
2022-08-22T15:14:01.503Z,22.90
2022-08-22T15:16:27.953Z,23.00
2022-08-22T15:18:54.401Z,23.20
2022-08-22T15:21:24.217Z,22.90
2022-08-22T15:23:51.172Z,22.80
2022-08-22T15:26:17.652Z,22.90
2022-08-22T15:31:19.452Z,22.60
2022-08-22T15:36:15.901Z,23.10
2022-08-22T15:38:47.921Z,24.20
2022-08-22T15:41:15.101Z,23.00
2022-08-22T15:43:41.589Z,23.30
2022-08-22T15:46:09.926Z,22.90
2022-08-22T15:48:44.457Z,23.20
2022-08-22T15:51:15.670Z,23.20
2022-08-22T15:53:42.115Z,22.60
2022-08-22T15:56:08.567Z,23.30
2022-08-22T15:58:35.016Z,23.00
2022-08-22T16:01:02.454Z,22.70
2022-08-22T16:03:28.899Z,23.20
2022-08-22T16:05:55.869Z,23.10
2022-08-22T16:08:22.446Z,24.30
2022-08-22T16:10:48.916Z,23.20
2022-08-22T16:13:15.361Z,22.70
2022-08-22T16:15:41.823Z,23.80
2022-08-22T16:18:08.273Z,23.00
2022-08-22T16:20:34.710Z,22.70
2022-08-22T16:23:01.166Z,22.50
2022-08-22T16:25:27.598Z,23.00
2022-08-22T16:27:54.083Z,22.90
2022-08-22T16:30:20.593Z,22.60
2022-08-22T16:32:47.149Z,22.90
2022-08-22T16:35:13.617Z,22.70
2022-08-22T16:37:40.048Z,23.10
2022-08-22T16:40:06.578Z,23.10
2022-08-22T16:42:34.369Z,23.00
2022-08-22T16:45:00.807Z,22.50
2022-08-22T16:47:27.246Z,22.80
2022-08-22T16:49:53.714Z,23.30
2022-08-22T16:52:20.159Z,24.40
2022-08-22T16:54:46.623Z,23.10
2022-08-22T16:57:14.511Z,23.20
2022-08-22T16:59:41.161Z,23.00
2022-08-22T17:02:07.615Z,23.10
2022-08-22T17:04:34.053Z,23.90
2022-08-22T17:07:00.488Z,24.20
2022-08-22T17:09:26.945Z,23.30
2022-08-22T17:11:53.407Z,22.90
2022-08-22T17:14:19.887Z,23.20
2022-08-22T17:16:48.715Z,23.00
2022-08-22T17:19:17.302Z,23.00
2022-08-22T17:21:50.640Z,24.10
2022-08-22T17:24:31.904Z,23.10
2022-08-22T17:26:59.802Z,23.20
2022-08-22T17:29:26.281Z,24.10
2022-08-22T17:31:52.745Z,23.20
2022-08-22T17:34:19.201Z,23.30
2022-08-22T17:36:45.655Z,23.20
2022-08-22T17:39:12.093Z,23.10
2022-08-22T17:41:38.542Z,23.00
2022-08-22T17:44:04.994Z,23.10
2022-08-22T17:46:31.464Z,22.80
2022-08-22T17:48:57.938Z,22.60
2022-08-22T17:51:28.300Z,22.90
2022-08-22T17:53:55.157Z,22.60
2022-08-22T17:56:21.603Z,22.80
2022-08-22T17:58:48.040Z,22.60
2022-08-22T18:01:14.574Z,23.60
2022-08-22T18:03:41.064Z,22.70
2022-08-22T18:06:07.520Z,23.00
2022-08-22T18:11:20.418Z,22.90
2022-08-22T18:13:46.861Z,22.60
2022-08-22T18:16:13.293Z,22.50
2022-08-22T18:18:39.735Z,22.50
2022-08-22T18:21:06.180Z,22.10
2022-08-22T18:23:39.028Z,22.80
2022-08-22T18:28:34.089Z,22.10
2022-08-22T18:31:00.520Z,22.40
2022-08-22T18:33:26.980Z,22.90
2022-08-22T18:35:55.473Z,22.20
2022-08-22T18:38:21.941Z,22.40
2022-08-22T18:40:50.166Z,22.60
2022-08-22T18:43:16.911Z,22.60
2022-08-22T18:45:44.261Z,22.70
2022-08-22T18:48:11.044Z,22.90
2022-08-22T18:50:37.484Z,22.90
2022-08-22T18:53:03.931Z,22.30
2022-08-22T18:55:30.487Z,22.70
2022-08-22T18:57:56.972Z,22.80
2022-08-22T19:00:23.497Z,23.00
2022-08-22T19:02:55.861Z,22.80
2022-08-22T19:05:22.730Z,22.90
2022-08-22T19:07:49.169Z,22.40
2022-08-22T19:10:15.625Z,23.90
2022-08-22T19:12:42.078Z,23.60
2022-08-22T19:15:08.543Z,23.00
2022-08-22T19:20:02.004Z,23.00
2022-08-22T19:22:28.469Z,23.10
2022-08-22T19:24:54.908Z,23.00
2022-08-22T19:27:21.376Z,23.00
2022-08-22T19:29:47.850Z,22.80
2022-08-22T19:32:14.305Z,22.50
2022-08-22T19:34:40.768Z,22.90
2022-08-22T19:37:07.213Z,23.70
2022-08-22T19:39:35.962Z,22.90
2022-08-22T19:42:02.436Z,23.30
2022-08-22T19:44:28.908Z,23.20
2022-08-22T19:51:49.314Z,22.60
2022-08-22T19:54:16.807Z,22.80
2022-08-22T19:59:10.461Z,22.80
2022-08-22T20:01:37.018Z,23.30
2022-08-22T20:06:45.755Z,23.40
2022-08-22T20:09:12.300Z,23.90
2022-08-22T20:11:38.807Z,23.00
2022-08-22T20:14:05.267Z,23.10
2022-08-22T20:16:31.721Z,22.70
2022-08-22T20:19:06.554Z,23.70
2022-08-22T20:21:38.826Z,22.80
2022-08-22T20:24:05.718Z,23.80
2022-08-22T20:26:32.166Z,22.60
2022-08-22T20:28:58.603Z,23.00
2022-08-22T20:31:25.050Z,23.90
2022-08-22T20:33:51.490Z,23.10
2022-08-22T20:36:27.858Z,22.90
2022-08-22T20:38:56.231Z,22.30
2022-08-22T20:41:22.824Z,24.10
2022-08-22T20:43:49.307Z,22.40
2022-08-22T20:46:15.972Z,22.60
2022-08-22T20:48:42.412Z,23.80
2022-08-22T20:51:08.915Z,22.80
2022-08-22T20:53:35.348Z,23.10
2022-08-22T20:56:01.814Z,22.90
2022-08-22T20:58:28.267Z,22.80
2022-08-22T21:00:54.761Z,22.80
2022-08-22T21:05:48.257Z,23.10
2022-08-22T21:08:14.697Z,23.60
2022-08-22T21:10:41.159Z,22.70
2022-08-22T21:13:07.607Z,22.90
2022-08-22T21:15:34.083Z,22.70
2022-08-22T21:18:00.726Z,23.30
2022-08-22T21:20:27.315Z,22.90
2022-08-22T21:22:53.777Z,23.00
2022-08-22T21:25:20.212Z,22.90
2022-08-22T21:27:46.671Z,22.50
2022-08-22T21:30:13.138Z,22.70
2022-08-22T21:32:39.601Z,22.90
2022-08-22T21:35:06.044Z,22.90
2022-08-22T21:39:59.508Z,23.70
2022-08-22T21:42:26.037Z,22.90
2022-08-22T21:44:52.482Z,23.50
2022-08-22T21:47:19.188Z,23.50
2022-08-22T21:49:57.451Z,23.60
2022-08-22T21:52:23.906Z,22.60
2022-08-22T21:54:50.356Z,22.70
2022-08-22T21:57:16.808Z,22.60
2022-08-22T21:59:51.561Z,22.10
2022-08-22T22:02:25.685Z,22.40
2022-08-22T22:04:53.994Z,23.50
2022-08-22T22:07:20.437Z,22.70
2022-08-22T22:09:54.437Z,22.40
2022-08-22T22:12:21.441Z,22.70
2022-08-22T22:14:47.886Z,23.10
2022-08-22T22:17:14.361Z,23.10
2022-08-22T22:19:40.833Z,23.90
2022-08-22T22:22:07.263Z,22.70
2022-08-22T22:24:33.705Z,22.50
2022-08-22T22:27:00.158Z,23.70
2022-08-22T22:29:26.601Z,22.70
2022-08-22T22:31:53.048Z,22.40
2022-08-22T22:34:19.485Z,22.90
2022-08-22T22:36:45.946Z,23.30
2022-08-22T22:39:12.384Z,23.40
2022-08-22T22:44:05.826Z,23.10
2022-08-22T22:46:32.275Z,22.90
2022-08-22T22:48:58.739Z,22.50
2022-08-22T22:51:25.194Z,22.60
2022-08-22T22:53:51.644Z,22.60
2022-08-22T22:56:18.091Z,22.70
2022-08-22T22:58:48.016Z,23.10
2022-08-22T23:01:15.712Z,22.40
2022-08-22T23:03:42.245Z,23.00
2022-08-22T23:06:08.690Z,22.90
2022-08-22T23:08:35.145Z,23.90
2022-08-22T23:11:01.597Z,22.90
2022-08-22T23:13:28.036Z,22.50
2022-08-22T23:15:54.487Z,22.10
2022-08-22T23:18:21.057Z,23.00
2022-08-22T23:20:56.883Z,22.50
2022-08-22T23:23:23.316Z,22.10
2022-08-22T23:25:49.770Z,22.50
2022-08-22T23:28:16.212Z,23.00
2022-08-22T23:33:09.666Z,22.70
2022-08-22T23:35:36.118Z,22.70
2022-08-22T23:38:02.557Z,22.60
2022-08-22T23:40:29.082Z,22.00
2022-08-22T23:42:56.629Z,22.40
2022-08-22T23:45:24.339Z,22.60
2022-08-22T23:47:50.780Z,23.90
2022-08-22T23:50:17.432Z,22.60
2022-08-22T23:52:43.926Z,23.90
2022-08-22T23:55:10.387Z,23.40
2022-08-22T23:57:36.841Z,23.70
